Time;durP1;ratioP1;P1;durP2;ratioP2;P2;SDS_P1;SDS_P2;PMS_P1;PMS_P2;Temp;Humidity;BMP_temperature;BMP_pressure;BME280_temperature;BME280_humidity;BME280_pressure;Samples;Min_cycle;Max_cycle;Signal;HPM_P1;HPM_P2
2023/01/03 00:04:35;;;;;;;6.13;3.92;;;;;;;6.76;74.57;101522.47;10171965;29;20570;-87
2023/01/03 00:09:36;;;;;;;8.45;4.45;;;;;;;6.74;74.77;101538.47;10173667;29;20044;-88
2023/01/03 00:14:40;;;;;;;5.65;3.70;;;;;;;6.55;75.63;101554.81;10172712;29;20102;-85
2023/01/03 00:19:42;;;;;;;;;;;;;;;6.71;74.75;101566.91;10193217;29;20059;-85
2023/01/03 00:24:44;;;;;;;7.30;3.95;;;;;;;6.20;75.06;101549.44;10195082;29;20052;-86
2023/01/03 00:29:45;;;;;;;7.35;3.97;;;;;;;5.28;75.82;101400.38;10212172;29;20109;-86
2023/01/03 00:34:46;;;;;;;6.63;3.88;;;;;;;6.33;76.39;101563.44;10194887;29;20081;-86
2023/01/03 00:39:47;;;;;;;7.45;4.00;;;;;;;6.04;76.97;101525.97;10194747;29;20056;-85
2023/01/03 00:44:48;;;;;;;9.05;3.72;;;;;;;5.84;77.38;101514.16;10184013;29;20107;-85
2023/01/03 00:49:49;;;;;;;10.70;4.50;;;;;;;5.22;78.02;101408.72;10172633;29;20052;-86
2023/01/03 00:54:50;;;;;;;10.02;5.18;;;;;;;5.36;78.49;101436.75;10174898;29;20059;-86
2023/01/03 00:59:50;;;;;;;16.20;5.00;;;;;;;4.53;77.79;101293.25;10163275;29;20063;-86
2023/01/03 01:04:52;;;;;;;66.13;18.33;;;;;;;5.33;78.07;101461.53;10178048;29;20059;-86
2023/01/03 01:09:53;;;;;;;37.72;14.02;;;;;;;5.93;78.10;101586.56;10178679;29;20048;-87
2023/01/03 01:14:55;;;;;;;24.02;8.35;;;;;;;5.90;78.00;101571.75;10177653;29;20081;-86
2023/01/03 01:19:55;;;;;;;28.33;10.00;;;;;;;5.20;78.24;101481.75;10180586;29;20158;-87
2023/01/03 01:24:56;;;;;;;34.08;10.68;;;;;;;5.16;78.74;101518.00;10179366;29;20143;-86
2023/01/03 01:29:57;;;;;;;34.42;10.00;;;;;;;4.37;79.24;101413.63;10177875;29;20056;-87
2023/01/03 01:34:58;;;;;;;56.30;19.67;;;;;;;4.53;79.59;101445.88;10178003;29;20048;-82
2023/01/03 01:39:59;;;;;;;23.58;8.32;;;;;;;4.75;80.00;101502.34;10178415;29;20048;-85
2023/01/03 01:45:13;;;;;;;10.90;5.55;;;;;;;4.84;81.33;101541.22;10178800;29;20075;-85
2023/01/03 01:50:29;;;;;;;14.25;7.03;;;;;;;5.03;80.27;101580.34;10177393;29;20067;-85
2023/01/03 01:55:52;;;;;;;17.17;7.95;;;;;;;4.49;80.88;101483.84;10160958;29;20056;-85
2023/01/03 02:00:54;;;;;;;28.73;8.75;;;;;;;3.97;79.88;101389.09;10160463;29;20071;-87
2023/01/03 02:05:57;;;;;;;23.05;9.27;;;;;;;5.08;79.95;101569.50;10175645;29;20059;-86
2023/01/03 02:11:23;;;;;;;26.27;8.75;;;;;;;5.07;80.00;101567.81;10177340;29;20056;-86
2023/01/03 02:16:47;;;;;;;37.67;13.35;;;;;;;4.94;79.88;101573.91;10177177;29;20044;-85
2023/01/03 02:22:19;;;;;;;143.83;46.17;;;;;;;3.94;80.95;101449.75;10159449;29;20142;-85
2023/01/03 02:27:33;;;;;;;142.20;43.63;;;;;;;4.76;80.89;101575.13;10160239;29;20048;-85
2023/01/03 02:33:00;;;;;;;77.22;25.40;;;;;;;4.57;81.99;101526.28;10159831;29;20056;-85
2023/01/03 02:38:17;;;;;;;34.63;13.65;;;;;;;5.14;81.38;101585.72;10176233;29;20230;-85
2023/01/03 02:43:35;;;;;;;17.75;8.02;;;;;;;4.43;82.29;101455.31;10175147;29;20048;-86
2023/01/03 02:48:58;;;;;;;9.80;5.13;;;;;;;5.44;80.99;101596.03;10174363;29;20500;-87
2023/01/03 02:54:01;;;;;;;7.95;4.30;;;;;;;5.53;79.58;101588.41;10175729;29;20059;-86
2023/01/03 02:59:07;;;;;;;9.48;5.35;;;;;;;5.00;80.65;101491.84;10175232;29;20572;-86
2023/01/03 03:04:08;;;;;;;28.85;5.50;;;;;;;5.39;80.01;101557.75;10158740;29;20146;-87
2023/01/03 03:09:09;;;;;;;11.57;5.22;;;;;;;5.68;80.03;101600.53;10158226;29;20600;-86
2023/01/03 03:14:24;;;;;;;8.25;5.07;;;;;;;5.09;81.28;101505.34;10158342;29;20044;-85
2023/01/03 03:24:58;;;;;;;15.63;5.60;;;;;;;5.44;80.35;101606.56;10174474;29;20055;-86
2023/01/03 03:30:02;;;;;;;11.85;5.80;;;;;;;4.77;80.89;101510.97;10173134;29;20058;-86
2023/01/03 03:35:08;;;;;;;14.10;6.07;;;;;;;4.90;80.49;101556.59;10174355;29;20441;-86
2023/01/03 03:46:01;;;;;;;15.93;8.35;;;;;;;4.80;81.30;101551.09;10173310;29;20048;-87
2023/01/03 03:51:13;;;;;;;9.15;5.43;;;;;;;4.06;81.92;101436.66;10153136;29;20148;-87
2023/01/03 03:56:23;;;;;;;8.60;5.45;;;;;;;4.63;81.39;101550.53;10156520;29;20071;-87
2023/01/03 04:01:26;;;;;;;12.75;6.25;;;;;;;4.58;80.63;101556.09;10172110;29;20056;-86
2023/01/03 04:06:47;;;;;;;12.88;6.93;;;;;;;4.97;81.65;101636.91;10157191;29;20150;-85
2023/01/03 04:11:49;;;;;;;10.70;5.68;;;;;;;4.33;81.37;101556.81;10156234;29;20051;-85
2023/01/03 04:16:50;;;;;;;9.60;4.97;;;;;;;4.72;81.22;101644.69;10174703;29;20052;-88
2023/01/03 04:21:51;;;;;;;11.57;5.45;;;;;;;4.05;81.26;101570.88;10173485;29;20052;-85
2023/01/03 04:26:52;;;;;;;15.40;6.40;;;;;;;3.76;81.56;101530.63;10175399;29;20120;-85
2023/01/03 04:31:52;;;;;;;12.23;6.25;;;;;;;4.10;81.86;101587.22;10181204;29;20040;-86
2023/01/03 04:36:53;;;;;;;14.35;5.85;;;;;;;4.46;81.73;101641.94;10212974;29;20087;-86
2023/01/03 04:41:54;;;;;;;14.60;6.40;;;;;;;4.03;81.82;101578.84;10196089;29;20534;-86
2023/01/03 04:46:55;;;;;;;9.60;5.65;;;;;;;4.25;81.51;101616.97;10204509;29;20047;-86
2023/01/03 04:51:55;;;;;;;10.30;5.75;;;;;;;3.58;81.77;101495.81;10205629;29;20055;-86
2023/01/03 04:56:56;;;;;;;9.95;5.00;;;;;;;3.98;81.06;101553.78;10214435;29;20135;-86
2023/01/03 05:01:57;;;;;;;21.30;5.35;;;;;;;4.05;80.83;101550.69;10178371;29;20063;-86
2023/01/03 05:06:58;;;;;;;13.23;5.60;;;;;;;4.09;80.55;101525.03;10193923;29;20048;-84
2023/01/03 05:11:59;;;;;;;11.38;5.28;;;;;;;4.86;80.85;101641.16;10219443;29;20423;-85
2023/01/03 05:16:59;;;;;;;11.95;5.55;;;;;;;4.19;80.31;101504.25;10218396;29;20063;-86
2023/01/03 05:27:19;;;;;;;9.93;5.03;;;;;;;4.79;80.78;101572.28;10218610;29;20052;-86
2023/01/03 05:32:21;;;;;;;12.73;5.13;;;;;;;4.61;79.68;101510.28;10217883;29;20504;-86
2023/01/03 05:37:23;;;;;;;15.38;6.13;;;;;;;5.16;79.26;101536.44;10201082;29;20052;-86
2023/01/03 05:42:25;;;;;;;12.55;6.45;;;;;;;5.51;79.00;101511.25;10216843;29;20047;-86
2023/01/03 05:47:26;;;;;;;11.65;4.95;;;;;;;5.54;78.56;101476.78;10215534;29;20051;-83
2023/01/03 05:52:26;;;;;;;7.75;4.70;;;;;;;6.47;77.56;101527.31;10216449;29;20504;-86
2023/01/03 05:57:27;;;;;;;12.15;4.72;;;;;;;7.16;76.70;101614.63;10213547;29;20076;-83
2023/01/03 06:02:28;;;;;;;7.28;4.28;;;;;;;7.24;77.54;101625.44;10199091;29;20081;-85
2023/01/03 06:07:30;;;;;;;7.75;4.03;;;;;;;6.35;77.05;101466.53;10185265;29;20056;-83
2023/01/03 06:12:31;;;;;;;8.73;4.72;;;;;;;7.53;76.45;101639.13;10193691;29;20084;-81
2023/01/03 06:17:54;;;;;;;8.48;4.70;;;;;;;7.09;75.84;101530.53;10212790;29;20595;-83
2023/01/03 06:22:54;;;;;;;12.82;4.70;;;;;;;7.24;75.99;101533.81;10187448;29;20056;-83
2023/01/03 06:27:55;;;;;;;7.90;4.70;;;;;;;7.14;75.39;101493.16;10186606;29;20059;-85
2023/01/03 06:32:56;;;;;;;6.18;4.30;;;;;;;7.56;74.62;101488.16;10205951;29;20044;-84
2023/01/03 06:37:57;;;;;;;6.57;4.22;;;;;;;8.37;73.68;101547.84;10200749;29;20055;-86
2023/01/03 06:42:58;;;;;;;13.38;4.35;;;;;;;8.69;73.02;101521.41;10203715;29;20079;-83
2023/01/03 06:53:33;;;;;;;13.55;4.05;;;;;;;9.47;70.31;101545.78;10184977;29;20528;-80
2023/01/03 06:58:35;;;;;;;6.47;3.60;;;;;;;10.30;70.02;101623.59;10165596;29;20052;-88
2023/01/03 07:03:36;;;;;;;8.60;3.28;;;;;;;9.78;69.72;101500.69;10162585;29;20575;-85
2023/01/03 07:08:37;;;;;;;10.02;3.63;;;;;;;10.34;68.72;101550.59;10204957;29;20058;-85
2023/01/03 07:18:57;;;;;;;12.02;3.85;;;;;;;10.38;68.30;101545.84;10214643;29;20044;-88
2023/01/03 07:24:00;;;;;;;6.97;3.53;;;;;;;10.85;67.85;101569.97;10192002;29;20594;-88
2023/01/03 07:29:04;;;;;;;8.02;3.78;;;;;;;10.63;67.06;101472.75;10188623;29;20091;-87
2023/01/03 07:34:05;;;;;;;6.10;4.10;;;;;;;11.28;66.38;101520.81;10196274;29;20411;-89
2023/01/03 07:39:06;;;;;;;6.22;3.95;;;;;;;11.90;65.27;101582.41;10178896;29;20052;-83
2023/01/03 07:44:07;;;;;;;6.63;4.28;;;;;;;11.37;64.32;101456.94;10199650;29;20066;-79
2023/01/03 07:49:08;;;;;;;10.23;4.45;;;;;;;11.93;64.45;101516.38;10202543;29;20062;-80
2023/01/03 07:54:09;;;;;;;6.18;3.65;;;;;;;12.03;64.10;101533.16;10198228;29;20055;-81
2023/01/03 07:59:11;;;;;;;5.70;3.70;;;;;;;11.68;63.99;101477.94;10192011;29;20531;-80
2023/01/03 08:04:12;;;;;;;4.70;3.47;;;;;;;12.19;63.10;101505.84;10197913;29;20048;-82
2023/01/03 08:14:32;;;;;;;5.68;3.63;;;;;;;12.44;61.25;101463.47;10192947;29;20428;-87
2023/01/03 08:19:32;;;;;;;3.90;2.90;;;;;;;12.63;60.33;101476.63;10198710;29;20071;-84
2023/01/03 08:24:33;;;;;;;5.35;3.30;;;;;;;13.02;60.29;101490.44;10197567;29;20142;-85
2023/01/03 08:29:34;;;;;;;4.90;3.05;;;;;;;13.14;59.89;101496.34;10180031;29;20500;-85
2023/01/03 08:34:37;;;;;;;5.30;3.20;;;;;;;12.33;58.83;101337.47;10194017;29;20087;-86
2023/01/03 08:39:53;;;;;;;6.03;2.87;;;;;;;13.52;58.28;101477.41;10193804;29;20745;-85
2023/01/03 08:45:01;;;;;;;5.97;3.80;;;;;;;13.51;57.84;101449.06;10189085;29;20059;-83
2023/01/03 08:50:03;;;;;;;8.05;3.53;;;;;;;13.78;58.08;101450.66;10191780;29;20457;-83
2023/01/03 08:55:04;;;;;;;6.32;3.30;;;;;;;12.79;57.81;101258.13;10198677;29;20155;-83
2023/01/03 09:00:06;;;;;;;5.40;2.75;;;;;;;13.73;57.60;101400.41;10174482;29;20480;-83
2023/01/03 09:05:07;;;;;;;5.57;3.22;;;;;;;13.84;56.57;101409.94;10189129;29;20436;-82
2023/01/03 09:10:09;;;;;;;5.85;2.88;;;;;;;13.34;56.51;101290.66;10190812;29;20043;-82
2023/01/03 09:15:11;;;;;;;4.45;2.42;;;;;;;14.18;55.54;101391.16;10195922;29;20058;-83
2023/01/03 09:20:14;;;;;;;4.53;2.40;;;;;;;14.30;54.81;101383.63;10192382;29;20105;-82
2023/01/03 09:25:14;;;;;;;19.73;5.00;;;;;;;14.35;55.30;101357.22;10195036;29;20040;-81
2023/01/03 09:30:16;;;;;;;4.18;2.30;;;;;;;14.06;54.61;101281.09;10184408;29;20047;-83
2023/01/03 09:35:18;;;;;;;3.95;2.03;;;;;;;14.23;54.48;101267.69;10177886;29;20064;-79
2023/01/03 09:40:19;;;;;;;3.70;2.53;;;;;;;14.24;54.51;101215.91;10177418;29;20055;-80
2023/01/03 09:45:25;;;;;;;4.95;3.00;;;;;;;15.00;53.01;101325.03;10188043;29;20086;-81
2023/01/03 09:50:29;;;;;;;6.35;4.57;;;;;;;15.11;53.17;101317.66;10186468;29;20056;-80
2023/01/03 10:06:54;;;;;;;3.75;2.42;;;;;;;14.86;53.28;101210.72;10176442;29;20060;-81
2023/01/03 10:12:30;;;;;;;4.22;2.00;;;;;;;15.28;51.65;101249.63;10176802;29;20075;-81
2023/01/03 10:17:37;;;;;;;5.90;3.92;;;;;;;15.38;53.00;101260.94;10176028;29;20055;-80
2023/01/03 10:22:38;;;;;;;9.05;4.97;;;;;;;15.09;52.82;101207.25;10159933;29;20151;-81
2023/01/03 10:27:48;;;;;;;4.25;2.53;;;;;;;15.40;51.64;101236.66;10212958;29;20051;-80
2023/01/03 10:33:00;;;;;;;8.00;3.42;;;;;;;15.60;52.54;101242.38;10214752;29;20056;-81
2023/01/03 10:38:02;;;;;;;6.70;2.92;;;;;;;15.62;52.26;101235.00;10198133;29;20158;-81
2023/01/03 10:43:39;;;;;;;4.00;2.00;;;;;;;15.68;51.80;101210.22;10214528;29;20052;-81
2023/01/03 10:48:46;;;;;;;4.30;1.77;;;;;;;15.17;51.41;101129.59;10144097;29;20043;-77
2023/01/03 10:53:50;;;;;;;6.50;2.03;;;;;;;15.60;51.98;101203.03;10202153;29;20048;-80
2023/01/03 10:59:14;;;;;;;5.07;2.63;;;;;;;15.18;51.99;101117.88;10210586;29;20139;-80
2023/01/03 11:04:18;;;;;;;7.93;2.58;;;;;;;15.14;52.29;101103.19;10213105;29;20054;-82
2023/01/03 11:09:19;;;;;;;6.55;1.98;;;;;;;15.20;52.23;101119.38;10220621;29;20116;-81
2023/01/03 11:14:25;;;;;;;4.07;1.98;;;;;;;14.94;51.46;101068.88;10213923;29;20138;-82
2023/01/03 11:19:28;;;;;;;5.97;1.80;;;;;;;15.40;52.40;101146.44;10212835;29;20138;-82
2023/01/03 11:24:54;;;;;;;4.60;1.77;;;;;;;14.52;51.94;101006.00;10213261;29;20127;-81
2023/01/03 11:30:31;;;;;;;8.13;2.20;;;;;;;15.44;52.08;101142.41;10213343;29;20051;-85
2023/01/03 11:35:56;;;;;;;8.15;1.80;;;;;;;15.70;52.61;101173.34;10188495;29;20056;-80
2023/01/03 11:41:08;;;;;;;6.47;1.80;;;;;;;15.65;53.05;101163.16;10206940;29;20081;-80
2023/01/03 11:46:27;;;;;;;6.38;1.80;;;;;;;15.63;52.99;101149.09;10192708;29;20066;-81
2023/01/03 11:51:56;;;;;;;3.67;1.80;;;;;;;15.11;52.42;101066.09;10197230;29;20419;-82
2023/01/03 11:57:06;;;;;;;4.25;1.95;;;;;;;15.28;52.73;101115.78;10201216;29;20048;-82
2023/01/03 12:02:42;;;;;;;4.18;1.70;;;;;;;15.31;52.96;101120.75;10204650;29;20051;-81
2023/01/03 12:08:07;;;;;;;5.80;2.25;;;;;;;15.40;53.03;101142.94;10223109;29;20063;-81
2023/01/03 12:13:26;;;;;;;6.43;1.90;;;;;;;15.32;53.26;101143.03;10181103;29;20087;-82
2023/01/03 12:18:40;;;;;;;5.45;2.03;;;;;;;15.32;53.23;101133.16;10196357;29;20512;-82
2023/01/03 12:23:50;;;;;;;9.60;2.45;;;;;;;14.95;53.31;101083.09;10195952;29;20040;-81
2023/01/03 12:29:11;;;;;;;4.85;2.38;;;;;;;14.79;53.38;101057.28;10188350;29;20627;-81
2023/01/03 12:34:21;;;;;;;83.40;5.43;;;;;;;15.09;54.03;101125.13;10201871;29;20060;-81
2023/01/03 12:39:27;;;;;;;7.00;2.25;;;;;;;14.46;54.15;101036.09;10200162;29;20087;-81
2023/01/03 12:44:39;;;;;;;8.02;2.55;;;;;;;14.71;54.39;101078.72;10199633;29;20052;-81
2023/01/03 12:49:59;;;;;;;4.10;2.10;;;;;;;14.39;54.64;101043.16;10193466;29;20048;-82
2023/01/03 12:55:22;;;;;;;6.65;2.15;;;;;;;14.66;54.38;101108.69;10195420;29;20643;-82
2023/01/03 13:00:42;;;;;;;9.00;2.50;;;;;;;14.59;54.60;101105.03;10202949;29;20063;-81
2023/01/03 13:06:05;;;;;;;13.25;2.60;;;;;;;14.32;55.09;101100.97;10198117;29;20512;-83
2023/01/03 13:11:36;;;;;;;19.77;7.97;;;;;;;14.14;55.83;101111.91;10185121;29;20076;-82
2023/01/03 13:16:42;;;;;;;20.17;5.22;;;;;;;13.82;56.57;101104.81;10183418;29;20104;-82
2023/01/03 13:21:52;;;;;;;19.45;5.55;;;;;;;13.49;57.39;101104.88;10196449;29;20056;-80
2023/01/03 13:27:24;;;;;;;21.98;6.70;;;;;;;13.26;58.01;101103.91;10199264;29;20401;-81
2023/01/03 13:32:28;;;;;;;34.42;14.35;;;;;;;12.64;58.67;101061.63;10214615;29;20055;-82
2023/01/03 13:37:49;;;;;;;;;;;;;;;12.78;58.70;101093.81;10213773;29;20040;-81
2023/01/03 13:43:16;;;;;;;30.55;13.07;;;;;;;12.44;60.37;101085.06;10214509;29;20138;-81
2023/01/03 13:48:30;;;;;;;22.02;10.40;;;;;;;11.98;61.08;101047.28;10210712;29;20159;-81
2023/01/03 13:53:37;;;;;;;31.83;12.27;;;;;;;11.81;61.64;101060.47;10191756;29;20116;-81
2023/01/03 13:58:49;;;;;;;26.05;11.25;;;;;;;11.52;62.85;101063.47;10205289;29;20066;-81
2023/01/03 14:04:12;;;;;;;21.13;9.38;;;;;;;11.40;63.37;101086.84;10206256;29;20063;-81
2023/01/03 14:09:30;;;;;;;66.47;23.35;;;;;;;11.22;63.92;101087.84;10212940;29;20139;-81
2023/01/03 14:14:35;;;;;;;70.57;26.02;;;;;;;11.03;64.72;101088.84;10216455;29;20143;-81
2023/01/03 14:19:39;;;;;;;104.57;34.35;;;;;;;10.80;64.94;101084.00;10215822;29;20051;-81
2023/01/03 14:24:48;;;;;;;127.25;45.47;;;;;;;10.56;65.83;101067.78;10213999;29;20472;-84
2023/01/03 14:29:53;;;;;;;106.35;42.53;;;;;;;10.20;65.93;101049.97;10216916;29;20047;-80
2023/01/03 14:34:54;;;;;;;132.95;51.63;;;;;;;9.13;66.14;100922.25;10191806;29;20056;-81
2023/01/03 14:40:01;;;;;;;125.53;47.22;;;;;;;9.33;68.15;100976.03;10175674;29;20048;-82
2023/01/03 14:45:05;;;;;;;120.72;48.50;;;;;;;8.77;68.32;100937.94;10176602;29;20052;-81
2023/01/03 14:50:17;;;;;;;133.95;51.40;;;;;;;8.94;69.89;100977.94;10175411;29;20055;-80
2023/01/03 14:55:20;;;;;;;151.57;61.13;;;;;;;8.13;69.71;100877.59;10173834;29;20137;-82
2023/01/03 15:00:25;;;;;;;122.90;52.75;;;;;;;8.98;70.12;101057.00;10175330;29;20060;-82
2023/01/03 15:05:33;;;;;;;126.45;51.83;;;;;;;8.83;71.50;101059.25;10156929;29;20070;-82
2023/01/03 15:10:46;;;;;;;99.38;42.20;;;;;;;8.50;71.47;101041.09;10173503;29;20055;-81
2023/01/03 15:15:53;;;;;;;107.32;42.65;;;;;;;7.32;71.59;100889.13;10170653;29;20060;-82
2023/01/03 15:20:55;;;;;;;97.03;41.30;;;;;;;8.18;71.49;101050.88;10156414;29;20047;-82
2023/01/03 15:25:58;;;;;;;98.35;41.85;;;;;;;7.69;73.21;100986.41;10173224;29;20062;-83
2023/01/03 15:31:13;;;;;;;102.47;42.33;;;;;;;8.04;75.38;101043.31;10152549;29;20078;-79
2023/01/03 15:36:15;;;;;;;88.70;31.77;;;;;;;7.77;73.40;101038.63;10157992;29;20056;-82
2023/01/03 15:46:49;;;;;;;80.18;33.33;;;;;;;7.35;73.74;100992.91;10173500;29;20051;-83
2023/01/03 15:51:49;;;;;;;96.13;31.27;;;;;;;7.16;74.05;100980.44;10192113;29;20055;-87
2023/01/03 15:57:02;;;;;;;62.05;23.50;;;;;;;6.52;76.11;100902.16;10212037;29;20484;-84
2023/01/03 16:02:13;;;;;;;70.30;24.25;;;;;;;7.20;76.43;101045.25;10207918;29;20074;-81
2023/01/03 16:07:14;;;;;;;68.35;20.75;;;;;;;6.16;74.93;100885.78;10232666;29;20207;-84
2023/01/03 16:12:20;;;;;;;38.80;16.52;;;;;;;6.69;75.94;100993.19;10229048;29;20055;-92
2023/01/03 16:17:25;;;;;;;60.38;23.08;;;;;;;6.83;76.04;101033.31;10221361;29;20171;-86
2023/01/03 16:22:28;;;;;;;65.97;23.15;;;;;;;5.73;75.91;100868.16;10218087;29;20055;-84
2023/01/03 16:27:29;;;;;;;60.58;21.52;;;;;;;6.71;76.46;101028.22;10231638;29;20039;-84
2023/01/03 16:32:31;;;;;;;90.22;31.75;;;;;;;6.54;76.86;101021.69;10208947;29;20051;-82
2023/01/03 16:37:32;;;;;;;71.47;24.70;;;;;;;5.66;77.07;100909.16;10212799;29;20524;-83
2023/01/03 16:42:33;;;;;;;68.93;22.95;;;;;;;6.37;77.21;101029.19;10210790;29;20047;-81
2023/01/03 16:47:37;;;;;;;72.78;22.85;;;;;;;6.16;78.03;101008.00;10192349;29;20192;-81
2023/01/03 16:52:42;;;;;;;65.80;19.13;;;;;;;6.04;78.16;101006.34;10212152;29;20150;-82
2023/01/03 16:57:42;;;;;;;45.40;16.40;;;;;;;5.15;78.04;100867.53;10205684;29;20054;-80
2023/01/03 17:02:44;;;;;;;46.25;19.77;;;;;;;6.00;77.87;101023.34;10242365;28;20055;-84
2023/01/03 17:07:48;;;;;;;99.45;40.42;;;;;;;5.79;78.23;100985.47;10232604;29;20074;-78
2023/01/03 17:12:49;;;;;;;75.10;29.73;;;;;;;5.09;78.16;100862.75;10235562;29;20055;-88
2023/01/03 17:17:49;;;;;;;56.83;20.98;;;;;;;5.68;78.11;100968.72;10246225;29;20054;-81
2023/01/03 17:22:54;;;;;;;52.78;21.40;;;;;;;5.54;78.45;100984.78;10223795;29;20142;-87
2023/01/03 17:27:56;;;;;;;;;;;;;;;5.82;78.63;101022.97;10244971;29;20059;-77
2023/01/03 17:32:57;;;;;;;59.08;22.95;;;;;;;5.57;77.89;101023.22;10233762;29;20387;-78
2023/01/03 17:37:59;;;;;;;54.35;20.05;;;;;;;5.52;79.10;101012.19;10239223;28;20059;-79
2023/01/03 17:43:01;;;;;;;49.92;19.45;;;;;;;5.36;79.60;101002.84;10255306;29;20047;-79
2023/01/03 17:53:22;;;;;;;42.15;17.60;;;;;;;4.30;79.64;100886.28;10250854;28;20063;-85
2023/01/03 17:58:35;;;;;;;51.90;21.50;;;;;;;5.19;80.75;101005.94;10238733;29;20047;-85
2023/01/03 18:03:37;;;;;;;46.15;19.65;;;;;;;4.77;79.60;100940.59;10244231;29;20512;-85
2023/01/03 18:08:38;;;;;;;38.60;15.70;;;;;;;4.62;79.75;100906.72;10255107;29;20424;-85
2023/01/03 18:13:39;;;;;;;36.40;15.02;;;;;;;3.94;79.38;100811.81;10236659;29;20055;-85
2023/01/03 18:18:40;;;;;;;49.47;19.17;;;;;;;4.51;80.34;100900.47;10254745;29;20051;-85
2023/01/03 18:23:41;;;;;;;46.95;19.27;;;;;;;4.32;80.93;100879.13;10251723;29;20169;-84
2023/01/03 18:28:42;;;;;;;57.60;21.23;;;;;;;4.00;80.34;100842.06;10248369;29;20150;-86
2023/01/03 18:33:44;;;;;;;58.90;22.38;;;;;;;4.42;80.40;100921.34;10253540;29;20479;-84
2023/01/03 18:38:44;;;;;;;58.40;22.83;;;;;;;4.59;81.16;100949.88;10251230;29;20084;-86
2023/01/03 18:43:45;;;;;;;41.88;15.82;;;;;;;4.36;81.56;100914.75;10232199;29;20043;-85
2023/01/03 18:48:46;;;;;;;40.75;18.27;;;;;;;3.72;81.17;100817.81;10244690;29;20059;-84
2023/01/03 18:53:52;;;;;;;47.60;17.80;;;;;;;3.67;81.62;100849.66;10235407;29;20058;-86
2023/01/03 18:58:55;;;;;;;42.97;17.70;;;;;;;4.06;81.23;100936.25;10226917;28;20082;-86
2023/01/03 19:03:56;;;;;;;46.55;21.73;;;;;;;3.62;81.98;100864.09;10240681;29;20097;-87
2023/01/03 19:08:59;;;;;;;36.80;16.63;;;;;;;3.87;82.35;100903.44;10223827;29;20102;-85
2023/01/03 19:14:02;;;;;;;43.20;16.27;;;;;;;3.20;81.62;100779.56;10254097;29;20065;-88
2023/01/03 19:19:05;;;;;;;67.93;33.08;;;;;;;3.77;82.98;100876.16;10238332;29;20047;-86
2023/01/03 19:24:19;;;;;;;40.60;19.55;;;;;;;3.63;84.02;100850.84;10253820;29;20059;-88
2023/01/03 19:29:23;;;;;;;52.87;23.20;;;;;;;3.85;83.14;100886.09;10237089;29;20050;-87
2023/01/03 19:34:26;;;;;;;54.42;23.83;;;;;;;3.71;84.06;100867.84;10241825;28;20306;-84
2023/01/03 19:39:27;;;;;;;54.53;23.73;;;;;;;4.04;83.13;100925.03;10241341;29;20053;-85
2023/01/03 19:44:27;;;;;;;42.33;20.33;;;;;;;3.54;83.08;100848.91;10252467;29;20051;-88
2023/01/03 19:49:28;;;;;;;53.95;23.27;;;;;;;3.30;83.77;100851.47;10235098;29;20046;-87
2023/01/03 19:54:29;;;;;;;37.75;18.38;;;;;;;3.18;84.31;100865.47;10248703;29;20047;-86
2023/01/03 19:59:33;;;;;;;39.63;17.65;;;;;;;3.42;84.73;100920.69;10223036;28;20518;-86
2023/01/03 20:04:34;;;;;;;46.63;19.95;;;;;;;3.52;84.64;100934.84;10233900;29;20145;-87
2023/01/03 20:09:35;;;;;;;40.92;16.00;;;;;;;3.42;83.91;100928.56;10247533;29;20134;-87
2023/01/03 20:14:40;;;;;;;47.35;18.52;;;;;;;3.39;85.04;100931.41;10231574;29;20054;-88
2023/01/03 20:19:40;;;;;;;49.38;20.77;;;;;;;3.29;84.42;100932.97;10234776;29;20434;-88
2023/01/03 20:24:41;;;;;;;47.30;18.65;;;;;;;2.86;84.16;100871.16;10228981;29;20138;-88
2023/01/03 20:29:43;;;;;;;48.53;21.88;;;;;;;3.09;84.35;100908.13;10233611;29;20566;-87
2023/01/03 20:34:44;;;;;;;40.67;18.40;;;;;;;2.96;84.11;100908.09;10233941;29;20438;-88
2023/01/03 20:39:45;;;;;;;37.08;15.25;;;;;;;2.16;84.53;100779.78;10233981;29;20142;-89
2023/01/03 20:44:46;;;;;;;32.25;14.20;;;;;;;2.61;84.26;100856.28;10250334;29;20043;-88
2023/01/03 20:49:47;;;;;;;37.30;16.00;;;;;;;2.37;84.49;100823.84;10249102;28;20051;-87
2023/01/03 20:54:47;;;;;;;31.70;13.63;;;;;;;2.93;84.15;100898.69;10250733;29;20055;-87
2023/01/03 20:59:49;;;;;;;46.70;21.88;;;;;;;2.44;84.28;100833.81;10251681;29;20062;-87
2023/01/03 21:04:50;;;;;;;42.95;17.65;;;;;;;2.35;84.68;100802.97;10233672;29;20047;-87
2023/01/03 21:09:50;;;;;;;49.42;22.33;;;;;;;1.65;84.71;100695.88;10251113;29;20415;-86
2023/01/03 21:14:51;;;;;;;37.25;16.85;;;;;;;1.49;84.71;100682.09;10240111;29;20062;-87
2023/01/03 21:19:52;;;;;;;22.30;10.52;;;;;;;2.44;85.02;100827.72;10241005;29;20142;-87
2023/01/03 21:24:53;;;;;;;30.90;13.07;;;;;;;2.17;84.94;100772.75;10240464;29;20078;-88
2023/01/03 21:29:54;;;;;;;35.00;14.45;;;;;;;1.68;84.88;100708.75;10258597;29;20051;-87
2023/01/03 21:34:54;;;;;;;24.60;12.10;;;;;;;1.61;85.20;100697.00;10240298;29;20047;-87
2023/01/03 21:39:55;;;;;;;43.63;21.08;;;;;;;1.52;85.10;100698.44;10240539;29;20062;-87
2023/01/03 21:44:56;;;;;;;21.73;9.93;;;;;;;1.77;86.27;100733.50;10239944;29;20055;-87
2023/01/03 21:49:57;;;;;;;14.82;7.97;;;;;;;1.67;87.25;100704.44;10257618;29;20051;-87
2023/01/03 21:54:57;;;;;;;17.95;8.75;;;;;;;1.95;87.67;100744.53;10239751;29;20059;-87
2023/01/03 21:59:59;;;;;;;14.27;7.75;;;;;;;1.79;87.77;100779.59;10254341;29;20055;-86
2023/01/03 22:04:59;;;;;;;19.98;8.13;;;;;;;1.35;87.85;100678.63;10221375;29;20093;-86
2023/01/03 22:10:15;;;;;;;15.35;6.68;;;;;;;1.57;87.95;100704.22;10237102;29;20089;-86
2023/01/03 22:15:16;;;;;;;21.73;9.40;;;;;;;2.18;87.72;100775.25;10253948;28;20062;-87
2023/01/03 22:20:19;;;;;;;18.17;10.25;;;;;;;1.88;88.21;100711.81;10256807;29;20055;-87
2023/01/03 22:25:22;;;;;;;18.65;8.90;;;;;;;1.94;88.35;100696.50;10237842;29;20039;-87
2023/01/03 22:30:23;;;;;;;25.42;10.68;;;;;;;2.61;87.94;100797.75;10238398;29;20043;-85
2023/01/03 22:35:24;;;;;;;30.30;13.70;;;;;;;2.68;88.92;100797.19;10256489;29;20514;-88
2023/01/03 22:40:25;;;;;;;21.23;9.75;;;;;;;2.52;89.55;100770.34;10254908;29;20047;-88
2023/01/03 22:45:26;;;;;;;30.83;12.90;;;;;;;2.05;89.05;100714.97;10255070;29;20055;-88
2023/01/03 22:50:26;;;;;;;24.17;12.48;;;;;;;1.63;88.68;100663.69;10269617;28;20039;-88
2023/01/03 22:55:27;;;;;;;19.08;8.70;;;;;;;1.87;88.99;100715.38;10269393;28;20047;-89
2023/01/03 23:00:28;;;;;;;17.60;8.90;;;;;;;2.23;88.96;100794.13;10255744;29;20055;-88
2023/01/03 23:05:29;;;;;;;20.73;9.35;;;;;;;2.34;89.59;100793.44;10246845;29;20051;-88
2023/01/03 23:10:30;;;;;;;18.48;7.60;;;;;;;2.31;89.73;100801.50;10259708;28;20059;-89
2023/01/03 23:15:31;;;;;;;17.88;7.88;;;;;;;1.20;89.03;100632.53;10250955;29;20055;-89
2023/01/03 23:20:34;;;;;;;22.95;7.75;;;;;;;2.26;89.47;100811.44;10205175;29;20538;-90
2023/01/03 23:25:35;;;;;;;13.52;6.30;;;;;;;1.56;89.19;100714.81;10197829;29;20500;-89
2023/01/03 23:30:36;;;;;;;25.42;8.68;;;;;;;2.14;89.44;100814.91;10260054;28;20055;-89
2023/01/03 23:35:37;;;;;;;16.33;6.80;;;;;;;2.03;88.87;100815.59;10252017;28;20051;-89
2023/01/03 23:40:39;;;;;;;17.25;7.88;;;;;;;1.21;88.75;100720.56;10236628;29;20086;-87
2023/01/03 23:45:40;;;;;;;13.68;6.47;;;;;;;0.96;89.36;100695.13;10251326;29;20099;-88
2023/01/03 23:50:41;;;;;;;15.13;7.22;;;;;;;1.69;89.28;100801.25;10235182;29;20047;-88
2023/01/03 23:55:42;;;;;;;15.20;7.35;;;;;;;1.52;89.36;100776.16;10235531;29;20047;-89
